sensor_id;sensor_type;location;lat;lon;timestamp;temperature;humidity
13203;DHT22;6666;51.626;7.530;2022-10-16T00:01:13;13.00;99.90
13203;DHT22;6666;51.626;7.530;2022-10-16T00:03:42;12.90;99.90
13203;DHT22;6666;51.626;7.530;2022-10-16T00:06:13;12.90;99.90
13203;DHT22;6666;51.626;7.530;2022-10-16T00:08:43;12.90;99.90
13203;DHT22;6666;51.626;7.530;2022-10-16T00:11:14;12.90;99.90
13203;DHT22;6666;51.626;7.530;2022-10-16T00:13:44;12.90;99.90
13203;DHT22;6666;51.626;7.530;2022-10-16T00:16:13;12.80;99.90
13203;DHT22;6666;51.626;7.530;2022-10-16T00:18:42;12.80;99.90
13203;DHT22;6666;51.626;7.530;2022-10-16T00:21:14;12.80;99.90
13203;DHT22;6666;51.626;7.530;2022-10-16T00:23:42;12.70;99.90
13203;DHT22;6666;51.626;7.530;2022-10-16T00:26:13;12.70;99.90
13203;DHT22;6666;51.626;7.530;2022-10-16T00:28:44;12.70;99.90
13203;DHT22;6666;51.626;7.530;2022-10-16T00:31:13;12.60;99.90
13203;DHT22;6666;51.626;7.530;2022-10-16T00:33:42;12.60;99.90
13203;DHT22;6666;51.626;7.530;2022-10-16T00:36:14;12.50;99.90
13203;DHT22;6666;51.626;7.530;2022-10-16T00:38:43;12.50;99.90
13203;DHT22;6666;51.626;7.530;2022-10-16T00:41:13;12.50;99.90
13203;DHT22;6666;51.626;7.530;2022-10-16T00:43:43;12.50;99.90
13203;DHT22;6666;51.626;7.530;2022-10-16T00:46:18;12.40;99.90
13203;DHT22;6666;51.626;7.530;2022-10-16T00:48:51;12.40;99.90
13203;DHT22;6666;51.626;7.530;2022-10-16T00:51:24;12.50;99.90
13203;DHT22;6666;51.626;7.530;2022-10-16T00:53:54;12.40;99.90
13203;DHT22;6666;51.626;7.530;2022-10-16T00:56:23;12.40;99.90
13203;DHT22;6666;51.626;7.530;2022-10-16T00:58:51;12.40;99.90
13203;DHT22;6666;51.626;7.530;2022-10-16T01:01:19;12.40;99.90
13203;DHT22;6666;51.626;7.530;2022-10-16T01:03:48;12.40;99.90
13203;DHT22;6666;51.626;7.530;2022-10-16T01:06:23;12.40;99.90
13203;DHT22;6666;51.626;7.530;2022-10-16T01:09:04;12.40;99.90
13203;DHT22;6666;51.626;7.530;2022-10-16T01:11:41;12.40;99.90
13203;DHT22;6666;51.626;7.530;2022-10-16T01:14:18;12.40;99.90
13203;DHT22;6666;51.626;7.530;2022-10-16T01:16:51;12.30;99.90
13203;DHT22;6666;51.626;7.530;2022-10-16T01:19:33;12.30;99.90
13203;DHT22;6666;51.626;7.530;2022-10-16T01:22:06;12.40;99.90
13203;DHT22;6666;51.626;7.530;2022-10-16T01:24:39;12.40;99.90
13203;DHT22;6666;51.626;7.530;2022-10-16T01:27:14;12.40;99.90
13203;DHT22;6666;51.626;7.530;2022-10-16T01:29:48;12.40;99.90
13203;DHT22;6666;51.626;7.530;2022-10-16T01:32:24;12.40;99.90
13203;DHT22;6666;51.626;7.530;2022-10-16T01:34:59;12.30;99.90
13203;DHT22;6666;51.626;7.530;2022-10-16T01:37:35;12.40;99.90
13203;DHT22;6666;51.626;7.530;2022-10-16T01:40:08;12.40;99.90
13203;DHT22;6666;51.626;7.530;2022-10-16T01:42:41;12.30;99.90
13203;DHT22;6666;51.626;7.530;2022-10-16T01:45:13;12.30;99.90
13203;DHT22;6666;51.626;7.530;2022-10-16T01:47:46;12.30;99.90
13203;DHT22;6666;51.626;7.530;2022-10-16T01:50:17;12.30;99.90
13203;DHT22;6666;51.626;7.530;2022-10-16T01:52:49;12.40;99.90
13203;DHT22;6666;51.626;7.530;2022-10-16T01:55:22;12.30;99.90
13203;DHT22;6666;51.626;7.530;2022-10-16T01:57:54;12.30;99.90
13203;DHT22;6666;51.626;7.530;2022-10-16T02:00:23;12.20;99.90
13203;DHT22;6666;51.626;7.530;2022-10-16T02:02:53;12.20;99.90
13203;DHT22;6666;51.626;7.530;2022-10-16T02:05:26;12.20;99.90
13203;DHT22;6666;51.626;7.530;2022-10-16T02:07:56;12.10;99.90
13203;DHT22;6666;51.626;7.530;2022-10-16T02:10:29;12.10;99.90
13203;DHT22;6666;51.626;7.530;2022-10-16T02:13:03;12.10;99.90
13203;DHT22;6666;51.626;7.530;2022-10-16T02:15:33;12.10;99.90
13203;DHT22;6666;51.626;7.530;2022-10-16T02:18:02;12.10;99.90
13203;DHT22;6666;51.626;7.530;2022-10-16T02:20:36;12.10;99.90
13203;DHT22;6666;51.626;7.530;2022-10-16T02:23:11;12.00;99.90
13203;DHT22;6666;51.626;7.530;2022-10-16T02:25:43;12.10;99.90
13203;DHT22;6666;51.626;7.530;2022-10-16T02:28:16;12.00;99.90
13203;DHT22;6666;51.626;7.530;2022-10-16T02:30:48;12.00;99.90
13203;DHT22;6666;51.626;7.530;2022-10-16T02:33:19;12.00;99.90
13203;DHT22;6666;51.626;7.530;2022-10-16T02:35:49;12.00;99.90
13203;DHT22;6666;51.626;7.530;2022-10-16T02:38:19;12.00;99.90
13203;DHT22;6666;51.626;7.530;2022-10-16T02:40:48;12.00;99.90
13203;DHT22;6666;51.626;7.530;2022-10-16T02:43:18;12.10;99.90
13203;DHT22;6666;51.626;7.530;2022-10-16T02:45:47;12.20;99.90
13203;DHT22;6666;51.626;7.530;2022-10-16T02:48:15;12.40;99.90
13203;DHT22;6666;51.626;7.530;2022-10-16T02:54:57;12.40;99.90
13203;DHT22;6666;51.626;7.530;2022-10-16T02:57:25;12.40;99.90
13203;DHT22;6666;51.626;7.530;2022-10-16T02:59:55;12.50;99.90
13203;DHT22;6666;51.626;7.530;2022-10-16T03:02:23;12.50;99.90
13203;DHT22;6666;51.626;7.530;2022-10-16T03:04:51;12.50;99.90
13203;DHT22;6666;51.626;7.530;2022-10-16T03:07:20;12.60;99.90
13203;DHT22;6666;51.626;7.530;2022-10-16T03:09:48;12.60;99.90
13203;DHT22;6666;51.626;7.530;2022-10-16T03:12:16;12.60;99.90
13203;DHT22;6666;51.626;7.530;2022-10-16T03:14:44;12.70;99.90
13203;DHT22;6666;51.626;7.530;2022-10-16T03:17:15;12.70;99.90
13203;DHT22;6666;51.626;7.530;2022-10-16T03:19:43;12.70;99.90
13203;DHT22;6666;51.626;7.530;2022-10-16T03:22:12;12.80;99.90
13203;DHT22;6666;51.626;7.530;2022-10-16T03:24:40;12.70;99.90
13203;DHT22;6666;51.626;7.530;2022-10-16T03:27:08;12.80;99.90
13203;DHT22;6666;51.626;7.530;2022-10-16T03:29:36;12.80;99.90
13203;DHT22;6666;51.626;7.530;2022-10-16T03:32:05;12.80;99.90
13203;DHT22;6666;51.626;7.530;2022-10-16T03:34:34;12.90;99.90
13203;DHT22;6666;51.626;7.530;2022-10-16T03:37:02;12.90;99.90
13203;DHT22;6666;51.626;7.530;2022-10-16T03:39:31;12.90;99.90
13203;DHT22;6666;51.626;7.530;2022-10-16T03:41:59;12.90;99.90
13203;DHT22;6666;51.626;7.530;2022-10-16T03:44:27;12.90;99.90
13203;DHT22;6666;51.626;7.530;2022-10-16T03:46:55;12.90;99.90
13203;DHT22;6666;51.626;7.530;2022-10-16T03:49:24;12.80;99.90
13203;DHT22;6666;51.626;7.530;2022-10-16T03:51:54;12.80;99.90
13203;DHT22;6666;51.626;7.530;2022-10-16T03:54:22;12.80;99.90
13203;DHT22;6666;51.626;7.530;2022-10-16T03:56:50;12.80;99.90
13203;DHT22;6666;51.626;7.530;2022-10-16T03:59:18;12.70;99.90
13203;DHT22;6666;51.626;7.530;2022-10-16T04:01:46;12.70;99.90
13203;DHT22;6666;51.626;7.530;2022-10-16T04:04:14;12.70;99.90
13203;DHT22;6666;51.626;7.530;2022-10-16T04:06:43;12.70;99.90
13203;DHT22;6666;51.626;7.530;2022-10-16T04:09:12;12.60;99.90
13203;DHT22;6666;51.626;7.530;2022-10-16T04:11:40;12.50;99.90
13203;DHT22;6666;51.626;7.530;2022-10-16T04:14:09;12.50;99.90
13203;DHT22;6666;51.626;7.530;2022-10-16T04:16:37;12.50;99.90
13203;DHT22;6666;51.626;7.530;2022-10-16T04:19:05;12.40;99.90
13203;DHT22;6666;51.626;7.530;2022-10-16T04:21:33;12.40;99.90
13203;DHT22;6666;51.626;7.530;2022-10-16T04:24:02;12.40;99.90
13203;DHT22;6666;51.626;7.530;2022-10-16T04:26:32;12.40;99.90
13203;DHT22;6666;51.626;7.530;2022-10-16T04:29:00;12.40;99.90
13203;DHT22;6666;51.626;7.530;2022-10-16T04:31:29;12.40;99.90
13203;DHT22;6666;51.626;7.530;2022-10-16T04:33:57;12.40;99.90
13203;DHT22;6666;51.626;7.530;2022-10-16T04:36:25;12.40;99.90
13203;DHT22;6666;51.626;7.530;2022-10-16T04:38:55;12.30;99.90
13203;DHT22;6666;51.626;7.530;2022-10-16T04:41:23;12.30;99.90
13203;DHT22;6666;51.626;7.530;2022-10-16T04:43:53;12.30;99.90
13203;DHT22;6666;51.626;7.530;2022-10-16T04:46:21;12.30;99.90
13203;DHT22;6666;51.626;7.530;2022-10-16T04:48:49;12.40;99.90
13203;DHT22;6666;51.626;7.530;2022-10-16T04:51:17;12.30;99.90
13203;DHT22;6666;51.626;7.530;2022-10-16T04:53:46;12.30;99.90
13203;DHT22;6666;51.626;7.530;2022-10-16T04:56:14;12.30;99.90
13203;DHT22;6666;51.626;7.530;2022-10-16T04:58:42;12.30;99.90
13203;DHT22;6666;51.626;7.530;2022-10-16T05:01:12;12.20;99.90
13203;DHT22;6666;51.626;7.530;2022-10-16T05:03:41;12.20;99.90
13203;DHT22;6666;51.626;7.530;2022-10-16T05:06:09;12.30;99.90
13203;DHT22;6666;51.626;7.530;2022-10-16T05:08:37;12.20;99.90
13203;DHT22;6666;51.626;7.530;2022-10-16T05:11:05;12.20;99.90
13203;DHT22;6666;51.626;7.530;2022-10-16T05:13:33;12.20;99.90
13203;DHT22;6666;51.626;7.530;2022-10-16T05:16:01;12.20;99.90
13203;DHT22;6666;51.626;7.530;2022-10-16T05:18:31;12.20;99.90
13203;DHT22;6666;51.626;7.530;2022-10-16T05:20:59;12.30;99.90
13203;DHT22;6666;51.626;7.530;2022-10-16T05:23:27;12.30;99.90
13203;DHT22;6666;51.626;7.530;2022-10-16T05:25:57;12.30;99.90
13203;DHT22;6666;51.626;7.530;2022-10-16T05:28:26;12.30;99.90
13203;DHT22;6666;51.626;7.530;2022-10-16T05:30:54;12.30;99.90
13203;DHT22;6666;51.626;7.530;2022-10-16T05:33:24;12.30;99.90
13203;DHT22;6666;51.626;7.530;2022-10-16T05:35:54;12.40;99.90
13203;DHT22;6666;51.626;7.530;2022-10-16T05:38:22;12.40;99.90
13203;DHT22;6666;51.626;7.530;2022-10-16T05:40:51;12.40;99.90
13203;DHT22;6666;51.626;7.530;2022-10-16T05:43:19;12.50;99.90
13203;DHT22;6666;51.626;7.530;2022-10-16T05:45:54;12.50;99.90
13203;DHT22;6666;51.626;7.530;2022-10-16T05:48:22;12.50;99.90
13203;DHT22;6666;51.626;7.530;2022-10-16T05:50:58;12.50;99.90
13203;DHT22;6666;51.626;7.530;2022-10-16T05:53:27;12.50;99.90
13203;DHT22;6666;51.626;7.530;2022-10-16T05:55:56;12.50;99.90
13203;DHT22;6666;51.626;7.530;2022-10-16T05:58:25;12.50;99.90
13203;DHT22;6666;51.626;7.530;2022-10-16T06:00:55;12.50;99.90
13203;DHT22;6666;51.626;7.530;2022-10-16T06:03:23;12.50;99.90
13203;DHT22;6666;51.626;7.530;2022-10-16T06:05:52;12.50;99.90
13203;DHT22;6666;51.626;7.530;2022-10-16T06:08:23;12.50;99.90
13203;DHT22;6666;51.626;7.530;2022-10-16T06:11:00;12.50;99.90
13203;DHT22;6666;51.626;7.530;2022-10-16T06:13:29;12.50;99.90
13203;DHT22;6666;51.626;7.530;2022-10-16T06:15:58;12.60;99.90
13203;DHT22;6666;51.626;7.530;2022-10-16T06:18:28;12.60;99.90
13203;DHT22;6666;51.626;7.530;2022-10-16T06:20:56;12.60;99.90
13203;DHT22;6666;51.626;7.530;2022-10-16T06:23:28;12.70;99.90
13203;DHT22;6666;51.626;7.530;2022-10-16T06:26:04;12.60;99.90
13203;DHT22;6666;51.626;7.530;2022-10-16T06:28:32;12.70;99.90
13203;DHT22;6666;51.626;7.530;2022-10-16T06:31:02;12.70;99.90
13203;DHT22;6666;51.626;7.530;2022-10-16T06:33:34;12.80;99.90
13203;DHT22;6666;51.626;7.530;2022-10-16T06:36:04;12.80;99.90
13203;DHT22;6666;51.626;7.530;2022-10-16T06:38:34;12.80;99.90
13203;DHT22;6666;51.626;7.530;2022-10-16T06:41:03;12.90;99.90
13203;DHT22;6666;51.626;7.530;2022-10-16T06:43:33;12.90;99.90
13203;DHT22;6666;51.626;7.530;2022-10-16T06:46:03;13.00;99.90
13203;DHT22;6666;51.626;7.530;2022-10-16T06:48:32;13.00;99.90
13203;DHT22;6666;51.626;7.530;2022-10-16T06:51:01;13.00;99.90
13203;DHT22;6666;51.626;7.530;2022-10-16T06:53:35;13.00;99.90
13203;DHT22;6666;51.626;7.530;2022-10-16T06:56:22;13.00;99.90
13203;DHT22;6666;51.626;7.530;2022-10-16T06:58:51;13.00;99.90
13203;DHT22;6666;51.626;7.530;2022-10-16T07:01:21;13.10;99.90
13203;DHT22;6666;51.626;7.530;2022-10-16T07:03:50;13.10;99.90
13203;DHT22;6666;51.626;7.530;2022-10-16T07:06:21;13.10;99.90
13203;DHT22;6666;51.626;7.530;2022-10-16T07:08:51;13.20;99.90
13203;DHT22;6666;51.626;7.530;2022-10-16T07:11:21;13.30;99.90
13203;DHT22;6666;51.626;7.530;2022-10-16T07:13:51;13.30;99.90
13203;DHT22;6666;51.626;7.530;2022-10-16T07:16:23;13.30;99.90
13203;DHT22;6666;51.626;7.530;2022-10-16T07:18:53;13.30;99.90
13203;DHT22;6666;51.626;7.530;2022-10-16T07:21:26;13.30;99.90
13203;DHT22;6666;51.626;7.530;2022-10-16T07:23:58;13.30;99.90
13203;DHT22;6666;51.626;7.530;2022-10-16T07:26:29;13.30;99.90
13203;DHT22;6666;51.626;7.530;2022-10-16T07:28:58;13.30;99.90
13203;DHT22;6666;51.626;7.530;2022-10-16T07:31:27;13.30;99.90
13203;DHT22;6666;51.626;7.530;2022-10-16T07:33:57;13.30;99.90
13203;DHT22;6666;51.626;7.530;2022-10-16T07:36:26;13.20;99.90
13203;DHT22;6666;51.626;7.530;2022-10-16T07:38:56;13.20;99.90
13203;DHT22;6666;51.626;7.530;2022-10-16T07:41:27;13.10;99.90
13203;DHT22;6666;51.626;7.530;2022-10-16T07:43:55;13.10;99.90
13203;DHT22;6666;51.626;7.530;2022-10-16T07:46:27;13.10;99.90
13203;DHT22;6666;51.626;7.530;2022-10-16T07:48:56;13.20;99.90
13203;DHT22;6666;51.626;7.530;2022-10-16T07:51:25;13.20;99.90
13203;DHT22;6666;51.626;7.530;2022-10-16T07:53:54;13.30;99.90
13203;DHT22;6666;51.626;7.530;2022-10-16T07:56:23;13.30;99.90
13203;DHT22;6666;51.626;7.530;2022-10-16T07:58:52;13.40;99.90
13203;DHT22;6666;51.626;7.530;2022-10-16T08:01:20;13.40;99.90
13203;DHT22;6666;51.626;7.530;2022-10-16T08:03:50;13.40;99.90
13203;DHT22;6666;51.626;7.530;2022-10-16T08:06:20;13.50;99.90
13203;DHT22;6666;51.626;7.530;2022-10-16T08:08:54;13.60;99.90
13203;DHT22;6666;51.626;7.530;2022-10-16T08:11:24;13.70;99.90
13203;DHT22;6666;51.626;7.530;2022-10-16T08:13:52;13.70;99.90
13203;DHT22;6666;51.626;7.530;2022-10-16T08:16:21;13.80;99.90
13203;DHT22;6666;51.626;7.530;2022-10-16T08:18:49;13.90;99.90
13203;DHT22;6666;51.626;7.530;2022-10-16T08:21:20;14.00;99.90
13203;DHT22;6666;51.626;7.530;2022-10-16T08:23:50;14.00;99.90
13203;DHT22;6666;51.626;7.530;2022-10-16T08:26:25;14.00;99.90
13203;DHT22;6666;51.626;7.530;2022-10-16T08:28:54;14.10;99.90
13203;DHT22;6666;51.626;7.530;2022-10-16T08:31:23;14.20;99.90
13203;DHT22;6666;51.626;7.530;2022-10-16T08:33:53;14.30;99.90
13203;DHT22;6666;51.626;7.530;2022-10-16T08:36:21;14.30;99.90
13203;DHT22;6666;51.626;7.530;2022-10-16T08:38:50;14.40;99.90
13203;DHT22;6666;51.626;7.530;2022-10-16T08:41:45;14.50;99.90
13203;DHT22;6666;51.626;7.530;2022-10-16T08:44:32;14.50;99.90
13203;DHT22;6666;51.626;7.530;2022-10-16T08:47:12;14.60;99.90
13203;DHT22;6666;51.626;7.530;2022-10-16T08:49:53;14.70;99.90
13203;DHT22;6666;51.626;7.530;2022-10-16T08:52:24;14.80;99.90
13203;DHT22;6666;51.626;7.530;2022-10-16T08:54:54;14.80;99.90
13203;DHT22;6666;51.626;7.530;2022-10-16T08:57:26;14.90;99.90
13203;DHT22;6666;51.626;7.530;2022-10-16T08:59:59;14.90;99.90
13203;DHT22;6666;51.626;7.530;2022-10-16T09:02:32;14.90;99.90
13203;DHT22;6666;51.626;7.530;2022-10-16T09:05:14;14.90;99.90
13203;DHT22;6666;51.626;7.530;2022-10-16T09:07:50;15.00;99.90
13203;DHT22;6666;51.626;7.530;2022-10-16T09:10:31;15.10;99.90
13203;DHT22;6666;51.626;7.530;2022-10-16T09:13:16;15.20;99.90
13203;DHT22;6666;51.626;7.530;2022-10-16T09:15:49;15.20;99.90
13203;DHT22;6666;51.626;7.530;2022-10-16T09:18:26;15.20;99.90
13203;DHT22;6666;51.626;7.530;2022-10-16T09:21:04;15.30;99.90
13203;DHT22;6666;51.626;7.530;2022-10-16T09:23:36;15.40;99.90
13203;DHT22;6666;51.626;7.530;2022-10-16T09:26:05;15.50;99.90
13203;DHT22;6666;51.626;7.530;2022-10-16T09:28:39;15.50;99.90
13203;DHT22;6666;51.626;7.530;2022-10-16T09:31:15;15.50;99.90
13203;DHT22;6666;51.626;7.530;2022-10-16T09:33:47;15.60;99.90
13203;DHT22;6666;51.626;7.530;2022-10-16T09:36:17;15.60;99.90
13203;DHT22;6666;51.626;7.530;2022-10-16T09:38:45;15.60;99.90
13203;DHT22;6666;51.626;7.530;2022-10-16T09:41:16;15.60;99.90
13203;DHT22;6666;51.626;7.530;2022-10-16T09:43:53;15.70;99.90
13203;DHT22;6666;51.626;7.530;2022-10-16T09:46:25;15.80;99.90
13203;DHT22;6666;51.626;7.530;2022-10-16T09:48:56;15.80;99.90
13203;DHT22;6666;51.626;7.530;2022-10-16T09:51:28;15.80;99.90
13203;DHT22;6666;51.626;7.530;2022-10-16T09:53:58;15.90;99.90
13203;DHT22;6666;51.626;7.530;2022-10-16T09:56:28;15.90;99.90
13203;DHT22;6666;51.626;7.530;2022-10-16T09:59:00;16.00;99.90
13203;DHT22;6666;51.626;7.530;2022-10-16T10:01:31;16.00;99.90
13203;DHT22;6666;51.626;7.530;2022-10-16T10:04:03;16.00;99.90
13203;DHT22;6666;51.626;7.530;2022-10-16T10:06:34;16.00;99.90
13203;DHT22;6666;51.626;7.530;2022-10-16T10:09:06;16.10;99.90
13203;DHT22;6666;51.626;7.530;2022-10-16T10:11:48;16.10;99.90
13203;DHT22;6666;51.626;7.530;2022-10-16T10:14:30;16.20;99.90
13203;DHT22;6666;51.626;7.530;2022-10-16T10:17:12;16.10;99.90
13203;DHT22;6666;51.626;7.530;2022-10-16T10:19:45;16.10;99.90
13203;DHT22;6666;51.626;7.530;2022-10-16T10:22:23;16.00;99.90
13203;DHT22;6666;51.626;7.530;2022-10-16T10:24:57;16.00;99.90
13203;DHT22;6666;51.626;7.530;2022-10-16T10:27:31;15.90;99.90
13203;DHT22;6666;51.626;7.530;2022-10-16T10:30:06;15.90;99.90
13203;DHT22;6666;51.626;7.530;2022-10-16T10:32:39;16.00;99.90
13203;DHT22;6666;51.626;7.530;2022-10-16T10:35:15;16.00;99.90
13203;DHT22;6666;51.626;7.530;2022-10-16T10:37:55;16.10;99.90
13203;DHT22;6666;51.626;7.530;2022-10-16T10:40:39;16.10;99.90
13203;DHT22;6666;51.626;7.530;2022-10-16T10:43:18;16.20;99.90
13203;DHT22;6666;51.626;7.530;2022-10-16T10:45:54;16.20;99.90
13203;DHT22;6666;51.626;7.530;2022-10-16T10:48:39;16.20;99.90
13203;DHT22;6666;51.626;7.530;2022-10-16T10:51:13;16.30;99.90
13203;DHT22;6666;51.626;7.530;2022-10-16T10:53:49;16.40;99.90
13203;DHT22;6666;51.626;7.530;2022-10-16T10:56:39;16.40;99.90
13203;DHT22;6666;51.626;7.530;2022-10-16T10:59:39;16.50;99.90
13203;DHT22;6666;51.626;7.530;2022-10-16T11:02:15;16.50;99.90
13203;DHT22;6666;51.626;7.530;2022-10-16T11:07:51;16.60;99.90
13203;DHT22;6666;51.626;7.530;2022-10-16T11:10:22;16.70;99.90
13203;DHT22;6666;51.626;7.530;2022-10-16T11:12:54;16.90;99.90
13203;DHT22;6666;51.626;7.530;2022-10-16T11:15:27;17.00;99.90
13203;DHT22;6666;51.626;7.530;2022-10-16T11:18:03;16.90;99.90
13203;DHT22;6666;51.626;7.530;2022-10-16T11:20:34;16.90;99.90
13203;DHT22;6666;51.626;7.530;2022-10-16T11:23:11;16.90;99.90
13203;DHT22;6666;51.626;7.530;2022-10-16T11:25:43;16.90;99.90
13203;DHT22;6666;51.626;7.530;2022-10-16T11:28:15;16.70;99.90
13203;DHT22;6666;51.626;7.530;2022-10-16T11:30:47;16.70;99.90
13203;DHT22;6666;51.626;7.530;2022-10-16T11:33:32;16.60;99.90
13203;DHT22;6666;51.626;7.530;2022-10-16T11:36:11;16.60;99.90
13203;DHT22;6666;51.626;7.530;2022-10-16T11:38:46;16.60;99.90
13203;DHT22;6666;51.626;7.530;2022-10-16T11:41:22;16.60;99.90
13203;DHT22;6666;51.626;7.530;2022-10-16T11:44:00;16.70;99.90
13203;DHT22;6666;51.626;7.530;2022-10-16T11:46:33;16.80;99.90
13203;DHT22;6666;51.626;7.530;2022-10-16T11:49:26;16.80;99.90
13203;DHT22;6666;51.626;7.530;2022-10-16T11:52:00;16.90;99.90
13203;DHT22;6666;51.626;7.530;2022-10-16T11:54:36;17.00;99.90
13203;DHT22;6666;51.626;7.530;2022-10-16T11:57:12;17.00;99.90
13203;DHT22;6666;51.626;7.530;2022-10-16T11:59:45;17.10;99.90
13203;DHT22;6666;51.626;7.530;2022-10-16T12:02:44;17.10;99.90
13203;DHT22;6666;51.626;7.530;2022-10-16T12:05:24;17.10;99.90
13203;DHT22;6666;51.626;7.530;2022-10-16T12:08:04;17.20;99.90
13203;DHT22;6666;51.626;7.530;2022-10-16T12:10:34;17.20;99.90
13203;DHT22;6666;51.626;7.530;2022-10-16T12:13:05;17.30;99.90
13203;DHT22;6666;51.626;7.530;2022-10-16T12:15:34;17.20;99.90
13203;DHT22;6666;51.626;7.530;2022-10-16T12:18:23;17.30;99.90
13203;DHT22;6666;51.626;7.530;2022-10-16T12:20:57;17.40;99.90
13203;DHT22;6666;51.626;7.530;2022-10-16T12:23:27;17.40;99.90
13203;DHT22;6666;51.626;7.530;2022-10-16T12:25:57;17.50;99.90
13203;DHT22;6666;51.626;7.530;2022-10-16T12:28:27;17.50;99.90
13203;DHT22;6666;51.626;7.530;2022-10-16T12:30:58;17.30;99.90
13203;DHT22;6666;51.626;7.530;2022-10-16T12:33:28;17.30;99.90
13203;DHT22;6666;51.626;7.530;2022-10-16T12:35:59;17.10;99.90
13203;DHT22;6666;51.626;7.530;2022-10-16T12:38:32;17.10;99.90
13203;DHT22;6666;51.626;7.530;2022-10-16T12:41:05;17.10;99.90
13203;DHT22;6666;51.626;7.530;2022-10-16T12:43:38;17.10;99.90
13203;DHT22;6666;51.626;7.530;2022-10-16T12:46:23;17.00;99.90
13203;DHT22;6666;51.626;7.530;2022-10-16T12:48:51;17.00;99.90
13203;DHT22;6666;51.626;7.530;2022-10-16T12:51:36;17.00;99.90
13203;DHT22;6666;51.626;7.530;2022-10-16T12:54:12;17.00;99.90
13203;DHT22;6666;51.626;7.530;2022-10-16T12:56:50;17.20;99.90
13203;DHT22;6666;51.626;7.530;2022-10-16T12:59:29;17.20;99.90
13203;DHT22;6666;51.626;7.530;2022-10-16T13:02:23;17.50;99.90
13203;DHT22;6666;51.626;7.530;2022-10-16T13:05:11;17.50;99.90
13203;DHT22;6666;51.626;7.530;2022-10-16T13:07:53;17.60;99.90
13203;DHT22;6666;51.626;7.530;2022-10-16T13:10:26;17.60;99.90
13203;DHT22;6666;51.626;7.530;2022-10-16T13:13:26;17.60;99.90
13203;DHT22;6666;51.626;7.530;2022-10-16T13:16:12;17.60;99.90
13203;DHT22;6666;51.626;7.530;2022-10-16T13:18:49;17.40;99.90
13203;DHT22;6666;51.626;7.530;2022-10-16T13:21:32;17.40;99.90
13203;DHT22;6666;51.626;7.530;2022-10-16T13:24:17;17.40;99.90
13203;DHT22;6666;51.626;7.530;2022-10-16T13:26:54;17.40;99.90
13203;DHT22;6666;51.626;7.530;2022-10-16T13:29:30;17.40;99.90
13203;DHT22;6666;51.626;7.530;2022-10-16T13:31:59;17.50;99.90
13203;DHT22;6666;51.626;7.530;2022-10-16T13:34:29;17.50;99.90
13203;DHT22;6666;51.626;7.530;2022-10-16T13:36:57;17.40;99.90
13203;DHT22;6666;51.626;7.530;2022-10-16T13:39:28;17.40;99.90
13203;DHT22;6666;51.626;7.530;2022-10-16T13:42:05;17.50;99.90
13203;DHT22;6666;51.626;7.530;2022-10-16T13:44:39;17.60;99.90
13203;DHT22;6666;51.626;7.530;2022-10-16T13:47:15;17.70;99.90
13203;DHT22;6666;51.626;7.530;2022-10-16T13:49:44;17.70;99.90
13203;DHT22;6666;51.626;7.530;2022-10-16T13:52:18;17.70;99.90
13203;DHT22;6666;51.626;7.530;2022-10-16T13:54:48;17.60;99.90
13203;DHT22;6666;51.626;7.530;2022-10-16T13:57:17;17.50;99.90
13203;DHT22;6666;51.626;7.530;2022-10-16T13:59:53;17.50;99.90
13203;DHT22;6666;51.626;7.530;2022-10-16T14:02:25;17.50;99.90
13203;DHT22;6666;51.626;7.530;2022-10-16T14:04:55;17.50;99.90
13203;DHT22;6666;51.626;7.530;2022-10-16T14:07:28;17.50;99.90
13203;DHT22;6666;51.626;7.530;2022-10-16T14:10:02;17.50;99.90
13203;DHT22;6666;51.626;7.530;2022-10-16T14:12:30;17.50;99.90
13203;DHT22;6666;51.626;7.530;2022-10-16T14:15:00;17.40;99.90
13203;DHT22;6666;51.626;7.530;2022-10-16T14:17:30;17.40;99.90
13203;DHT22;6666;51.626;7.530;2022-10-16T14:20:03;17.50;99.90
13203;DHT22;6666;51.626;7.530;2022-10-16T14:22:34;17.50;99.90
13203;DHT22;6666;51.626;7.530;2022-10-16T14:25:20;17.60;99.90
13203;DHT22;6666;51.626;7.530;2022-10-16T14:28:01;17.60;99.90
13203;DHT22;6666;51.626;7.530;2022-10-16T14:30:31;17.70;99.90
13203;DHT22;6666;51.626;7.530;2022-10-16T14:33:00;17.70;99.90
13203;DHT22;6666;51.626;7.530;2022-10-16T14:35:31;17.80;99.90
13203;DHT22;6666;51.626;7.530;2022-10-16T14:38:02;17.80;99.90
13203;DHT22;6666;51.626;7.530;2022-10-16T14:40:33;17.90;99.90
13203;DHT22;6666;51.626;7.530;2022-10-16T14:43:03;17.90;99.90
13203;DHT22;6666;51.626;7.530;2022-10-16T14:45:33;17.70;99.90
13203;DHT22;6666;51.626;7.530;2022-10-16T14:48:04;17.60;99.90
13203;DHT22;6666;51.626;7.530;2022-10-16T14:50:34;17.40;99.90
13203;DHT22;6666;51.626;7.530;2022-10-16T14:53:04;17.30;99.90
13203;DHT22;6666;51.626;7.530;2022-10-16T14:55:38;17.20;99.90
13203;DHT22;6666;51.626;7.530;2022-10-16T14:58:10;17.10;99.90
13203;DHT22;6666;51.626;7.530;2022-10-16T15:00:41;17.00;99.90
13203;DHT22;6666;51.626;7.530;2022-10-16T15:03:09;16.90;99.90
13203;DHT22;6666;51.626;7.530;2022-10-16T15:05:38;16.90;99.90
13203;DHT22;6666;51.626;7.530;2022-10-16T15:08:06;16.90;99.90
13203;DHT22;6666;51.626;7.530;2022-10-16T15:10:41;17.00;99.90
13203;DHT22;6666;51.626;7.530;2022-10-16T15:13:12;17.20;99.90
13203;DHT22;6666;51.626;7.530;2022-10-16T15:15:42;17.30;99.90
13203;DHT22;6666;51.626;7.530;2022-10-16T15:18:11;17.40;99.90
13203;DHT22;6666;51.626;7.530;2022-10-16T15:20:41;17.50;99.90
13203;DHT22;6666;51.626;7.530;2022-10-16T15:23:14;17.40;99.90
13203;DHT22;6666;51.626;7.530;2022-10-16T15:25:46;17.30;99.90
13203;DHT22;6666;51.626;7.530;2022-10-16T15:28:15;17.20;99.90
13203;DHT22;6666;51.626;7.530;2022-10-16T15:30:44;17.10;99.90
13203;DHT22;6666;51.626;7.530;2022-10-16T15:33:14;17.00;99.90
13203;DHT22;6666;51.626;7.530;2022-10-16T15:35:46;17.00;99.90
13203;DHT22;6666;51.626;7.530;2022-10-16T15:38:15;16.90;99.90
13203;DHT22;6666;51.626;7.530;2022-10-16T15:40:45;16.90;99.90
13203;DHT22;6666;51.626;7.530;2022-10-16T15:43:14;16.80;99.90
13203;DHT22;6666;51.626;7.530;2022-10-16T15:45:43;16.70;99.90
13203;DHT22;6666;51.626;7.530;2022-10-16T15:48:12;16.80;99.90
13203;DHT22;6666;51.626;7.530;2022-10-16T15:50:41;16.80;99.90
13203;DHT22;6666;51.626;7.530;2022-10-16T15:53:10;16.70;99.90
13203;DHT22;6666;51.626;7.530;2022-10-16T15:55:38;16.70;99.90
13203;DHT22;6666;51.626;7.530;2022-10-16T15:58:08;16.60;99.90
13203;DHT22;6666;51.626;7.530;2022-10-16T16:00:36;16.60;99.90
13203;DHT22;6666;51.626;7.530;2022-10-16T16:03:05;16.60;99.90
13203;DHT22;6666;51.626;7.530;2022-10-16T16:05:36;16.50;99.90
13203;DHT22;6666;51.626;7.530;2022-10-16T16:08:11;16.50;99.90
13203;DHT22;6666;51.626;7.530;2022-10-16T16:10:39;16.50;99.90
13203;DHT22;6666;51.626;7.530;2022-10-16T16:13:09;16.40;99.90
13203;DHT22;6666;51.626;7.530;2022-10-16T16:15:38;16.40;99.90
13203;DHT22;6666;51.626;7.530;2022-10-16T16:18:07;16.40;99.90
13203;DHT22;6666;51.626;7.530;2022-10-16T16:20:36;16.40;99.90
13203;DHT22;6666;51.626;7.530;2022-10-16T16:23:05;16.30;99.90